Hovedside
METAR-TAF:

METAR-TAF

Lufthavner :

Anvik, Alaska, USA

breddegrad: 62-38-54N, lengdegrad: 160-11-23W, høyde over havet: 94 m

Gjeldene værobservasjon

Denne rapporten ble laget for 14 minutter siden, klokken 17:56 UTC
Vind 8 kt fra Sør-sørøst
Temperatur -3°C
Luftfuktighet 100%
Trykk 1003 hPa
Sikt: 14.5 km
Overskyet i en høyde av 6000 ft
lett snø

METAR: PANV 231756Z AUTO 15008KT 9SM -SN OVC060 M03/M03 A2962 RMK AO2 SLP126 P0000 60000 T10281033 11022 21028 53008 FZRANO TSNO

Tid: 09:10 (18:10 UTC)


TAF: fraværende

Værobservasjoner og værvarsel for over 4000 flyplasser (METAR- og TAF-rapporter).

Tilgjengelige stasjoner er representert av de røde og gule prikkene på kartet.

Hold musepekeren over prikken for å se navnet på stasjonen.

Klikk så for å se værobservasjoner og -varsler.

For å forandre kartet kan du klikke på den grønne knappen med svart kryss for å zoome inn, på den grønne knappen med strek for å zoome ut, eller på de grønne pilene for å se tilstøtende kart.


METAR-TAF: